createdAt,value
2023-07-15T00:02:16.779Z,68.32
2023-07-15T00:05:40.465Z,68.24
2023-07-15T00:09:02.216Z,68.24
2023-07-15T00:12:26.228Z,68.16
2023-07-15T00:15:52.121Z,68.23
2023-07-15T00:19:18.875Z,68.70
2023-07-15T00:22:40.579Z,68.77
2023-07-15T00:26:02.231Z,68.58
2023-07-15T00:29:23.980Z,69.07
2023-07-15T00:32:49.333Z,69.65
2023-07-15T00:36:12.508Z,69.68
2023-07-15T00:39:41.478Z,70.26
2023-07-15T00:43:40.841Z,70.59
2023-07-15T00:47:34.290Z,70.79
2023-07-15T00:50:55.985Z,71.24
2023-07-15T00:54:18.476Z,71.27
2023-07-15T00:57:40.172Z,71.35
2023-07-15T01:01:04.657Z,71.41
2023-07-15T01:04:26.456Z,71.37
2023-07-15T01:07:48.436Z,71.50
2023-07-15T01:11:11.577Z,71.43
2023-07-15T01:14:36.124Z,71.68
2023-07-15T01:17:58.594Z,71.47
2023-07-15T01:21:21.080Z,71.42
2023-07-15T01:24:45.284Z,71.24
2023-07-15T01:28:09.261Z,71.09
2023-07-15T01:31:31.768Z,71.23
2023-07-15T01:34:56.355Z,71.50
2023-07-15T01:38:20.785Z,72.12
2023-07-15T01:41:43.316Z,71.93
2023-07-15T01:45:10.959Z,72.43
2023-07-15T01:48:32.591Z,72.86
2023-07-15T01:51:55.038Z,72.70
2023-07-15T01:55:16.856Z,72.71
2023-07-15T01:58:38.495Z,72.97
2023-07-15T02:02:02.290Z,73.27
2023-07-15T02:05:27.168Z,73.19
2023-07-15T02:08:48.926Z,73.31
2023-07-15T02:12:10.808Z,73.43
2023-07-15T02:15:34.758Z,73.43
2023-07-15T02:18:56.884Z,73.00
2023-07-15T02:22:21.444Z,73.08
2023-07-15T02:25:43.487Z,73.08
2023-07-15T02:29:05.107Z,72.93
2023-07-15T02:32:37.412Z,72.97
2023-07-15T02:36:01.398Z,72.80
2023-07-15T02:39:23.085Z,72.66
2023-07-15T02:42:47.366Z,72.82
2023-07-15T02:46:09.106Z,72.65
2023-07-15T02:49:33.094Z,72.83
2023-07-15T02:52:54.742Z,72.94
2023-07-15T02:56:18.804Z,72.81
2023-07-15T02:59:42.790Z,72.77
2023-07-15T03:03:09.252Z,72.98
2023-07-15T03:06:33.199Z,73.03
2023-07-15T03:09:57.940Z,73.06
2023-07-15T03:13:19.620Z,73.41
2023-07-15T03:16:42.032Z,73.47
2023-07-15T03:20:23.126Z,73.87
2023-07-15T03:23:44.801Z,73.66
2023-07-15T03:27:08.997Z,73.41
2023-07-15T03:30:33.329Z,73.09
2023-07-15T03:33:55.108Z,73.43
2023-07-15T03:37:19.104Z,73.49
2023-07-15T03:40:40.746Z,73.57
2023-07-15T03:44:02.369Z,73.84
2023-07-15T03:47:24.036Z,74.11
2023-07-15T03:50:46.389Z,74.05
2023-07-15T03:54:08.142Z,73.78
2023-07-15T03:57:36.744Z,74.46
2023-07-15T04:00:58.518Z,74.56
2023-07-15T04:04:20.197Z,74.50
2023-07-15T04:07:42.178Z,74.58
2023-07-15T04:11:07.388Z,74.65
2023-07-15T04:14:29.076Z,74.77
2023-07-15T04:17:50.830Z,74.47
2023-07-15T04:21:12.499Z,73.64
2023-07-15T04:24:36.558Z,72.86
2023-07-15T04:27:58.730Z,72.36
2023-07-15T04:31:20.442Z,71.65
2023-07-15T04:34:42.165Z,72.33
2023-07-15T04:38:03.868Z,71.22
2023-07-15T04:41:25.529Z,71.02
2023-07-15T04:44:47.328Z,70.15
2023-07-15T04:48:10.008Z,70.14
2023-07-15T04:51:36.457Z,69.93
2023-07-15T04:54:58.716Z,68.81
2023-07-15T04:58:20.778Z,68.53
2023-07-15T05:01:42.490Z,68.63
2023-07-15T05:05:05.472Z,68.87
2023-07-15T05:08:27.273Z,67.52
2023-07-15T05:11:48.855Z,67.21
2023-07-15T05:15:10.487Z,67.06
2023-07-15T05:18:32.447Z,65.64
2023-07-15T05:21:54.125Z,65.96
2023-07-15T05:25:18.056Z,64.58
2023-07-15T05:28:41.996Z,65.00
2023-07-15T05:32:04.313Z,64.46
2023-07-15T05:35:26.126Z,62.85
2023-07-15T05:38:47.792Z,62.99
2023-07-15T05:42:09.490Z,62.84
2023-07-15T05:45:35.907Z,63.09
2023-07-15T05:49:00.047Z,63.14
2023-07-15T05:52:21.676Z,61.95
2023-07-15T05:55:43.316Z,61.19
2023-07-15T05:59:04.927Z,60.35
2023-07-15T06:02:27.237Z,59.68
2023-07-15T06:05:53.549Z,59.67
2023-07-15T06:09:19.966Z,59.70
2023-07-15T06:12:44.887Z,60.36
2023-07-15T06:16:08.706Z,60.24
2023-07-15T06:19:32.512Z,60.49
2023-07-15T06:22:54.469Z,59.01
2023-07-15T06:26:16.425Z,56.94
2023-07-15T06:29:38.228Z,57.51
2023-07-15T06:32:59.983Z,57.67
2023-07-15T06:36:26.025Z,57.87
2023-07-15T06:39:50.645Z,57.88
2023-07-15T06:43:15.989Z,58.10
2023-07-15T06:46:42.784Z,57.14
2023-07-15T06:50:04.937Z,56.35
2023-07-15T06:53:26.545Z,55.13
2023-07-15T06:56:48.433Z,56.39
2023-07-15T07:00:13.648Z,56.85
2023-07-15T07:03:35.591Z,56.14
2023-07-15T07:06:57.165Z,56.33
2023-07-15T07:10:21.465Z,55.99
2023-07-15T07:13:43.157Z,56.07
2023-07-15T07:17:07.488Z,54.28
2023-07-15T07:20:29.819Z,54.61
2023-07-15T07:23:53.593Z,54.68
2023-07-15T07:27:20.060Z,55.27
2023-07-15T07:30:42.340Z,53.99
2023-07-15T07:34:04.058Z,52.63
2023-07-15T07:37:25.910Z,53.67
2023-07-15T07:40:48.107Z,53.57
2023-07-15T07:44:13.210Z,52.84
2023-07-15T07:47:37.175Z,51.58
2023-07-15T07:51:00.377Z,50.60
2023-07-15T07:54:22.058Z,49.76
2023-07-15T07:57:43.685Z,52.64
2023-07-15T08:01:05.296Z,52.56
2023-07-15T08:04:27.733Z,50.00
2023-07-15T08:07:51.703Z,50.70
2023-07-15T08:11:13.691Z,50.59
2023-07-15T08:14:38.151Z,50.41
2023-07-15T08:18:00.002Z,49.84
2023-07-15T08:21:21.749Z,49.55
2023-07-15T08:24:43.401Z,49.70
2023-07-15T08:28:08.257Z,50.55
2023-07-15T08:31:30.037Z,52.85
2023-07-15T08:35:02.326Z,50.91
2023-07-15T08:38:26.173Z,51.99
2023-07-15T08:41:51.544Z,51.91
2023-07-15T08:45:13.416Z,51.41
2023-07-15T08:48:40.872Z,50.04
2023-07-15T08:52:03.448Z,49.51
2023-07-15T08:55:27.856Z,49.91
2023-07-15T08:58:52.077Z,49.03
2023-07-15T09:02:13.872Z,49.58
2023-07-15T09:05:35.666Z,47.54
2023-07-15T09:08:57.350Z,48.11
2023-07-15T09:12:28.399Z,47.58
2023-07-15T09:15:52.858Z,50.38
2023-07-15T09:19:20.212Z,49.60
2023-07-15T09:22:41.891Z,48.65
2023-07-15T09:26:05.794Z,49.30
2023-07-15T09:29:27.544Z,47.41
2023-07-15T09:32:49.510Z,46.75
2023-07-15T09:36:12.853Z,48.01
2023-07-15T09:39:37.525Z,46.89
2023-07-15T09:42:59.276Z,47.52
2023-07-15T09:46:23.995Z,48.66
2023-07-15T09:49:47.947Z,50.08
2023-07-15T09:53:13.030Z,50.69
2023-07-15T09:56:47.515Z,49.81
2023-07-15T10:00:12.718Z,49.41
2023-07-15T10:03:44.994Z,49.39
2023-07-15T10:07:06.879Z,47.93
2023-07-15T10:10:28.882Z,49.70
2023-07-15T10:13:50.817Z,49.63
2023-07-15T10:17:16.428Z,48.75
2023-07-15T10:20:42.330Z,49.57
2023-07-15T10:24:10.026Z,47.69
2023-07-15T10:27:33.322Z,47.95
2023-07-15T10:31:15.049Z,48.17
2023-07-15T10:34:41.640Z,47.00
2023-07-15T10:38:24.722Z,47.50
2023-07-15T10:41:49.320Z,46.01
2023-07-15T10:45:13.056Z,47.13
2023-07-15T10:48:38.819Z,46.82
2023-07-15T10:52:06.225Z,46.21
2023-07-15T10:55:27.898Z,46.84
2023-07-15T10:58:49.524Z,46.65
2023-07-15T11:02:11.942Z,45.22
2023-07-15T11:05:36.425Z,46.08
2023-07-15T11:09:16.200Z,47.21
2023-07-15T11:12:37.839Z,46.62
2023-07-15T11:15:59.560Z,46.87
2023-07-15T11:19:22.719Z,47.10
2023-07-15T11:22:44.487Z,47.47
2023-07-15T11:26:14.121Z,45.70
2023-07-15T11:29:35.969Z,45.90
2023-07-15T11:32:57.614Z,46.37
2023-07-15T11:36:21.874Z,44.50
2023-07-15T11:39:54.062Z,44.17
2023-07-15T11:43:19.655Z,45.30
2023-07-15T11:46:44.689Z,45.09
2023-07-15T11:50:06.970Z,46.12
2023-07-15T11:53:34.127Z,46.04
2023-07-15T11:56:59.901Z,47.15
2023-07-15T12:00:45.239Z,46.56
2023-07-15T12:04:15.615Z,46.26
2023-07-15T12:07:39.537Z,45.16
2023-07-15T12:11:04.198Z,44.70
2023-07-15T12:14:31.485Z,45.52
2023-07-15T12:17:55.883Z,46.94
2023-07-15T12:21:20.526Z,47.51
2023-07-15T12:24:44.356Z,47.12
2023-07-15T12:28:07.981Z,47.08
2023-07-15T12:31:34.329Z,46.22
2023-07-15T12:34:58.467Z,46.47
2023-07-15T12:38:22.753Z,46.69
2023-07-15T12:41:46.965Z,46.18
2023-07-15T12:45:09.189Z,45.94
2023-07-15T12:48:33.520Z,45.96
2023-07-15T12:51:59.700Z,46.12
2023-07-15T12:55:21.418Z,46.53
2023-07-15T12:58:43.033Z,46.14
2023-07-15T13:02:05.411Z,45.85
2023-07-15T13:05:27.115Z,47.27
2023-07-15T13:08:48.724Z,46.78
2023-07-15T13:12:12.824Z,46.67
2023-07-15T13:15:34.489Z,46.32
2023-07-15T13:18:56.164Z,45.08
2023-07-15T13:22:19.945Z,45.99
2023-07-15T13:25:46.539Z,45.33
2023-07-15T13:29:10.607Z,45.89
2023-07-15T13:32:34.959Z,45.34
2023-07-15T13:35:58.749Z,46.11
2023-07-15T13:39:39.628Z,46.34
2023-07-15T13:43:03.546Z,46.57
2023-07-15T13:46:27.554Z,46.80
2023-07-15T13:49:54.050Z,44.96
2023-07-15T13:53:18.697Z,44.64
2023-07-15T13:56:40.314Z,42.97
2023-07-15T14:00:05.481Z,43.64
2023-07-15T14:03:29.633Z,44.22
2023-07-15T14:06:51.324Z,45.60
2023-07-15T14:10:15.263Z,45.02
2023-07-15T14:13:39.904Z,45.07
2023-07-15T14:17:04.140Z,45.04
2023-07-15T14:20:26.012Z,43.70
2023-07-15T14:23:50.332Z,45.01
2023-07-15T14:27:16.857Z,44.60
2023-07-15T14:30:40.674Z,44.46
2023-07-15T14:34:02.427Z,43.78
2023-07-15T14:37:24.025Z,43.20
2023-07-15T14:40:48.173Z,43.18
2023-07-15T14:44:11.756Z,44.88
2023-07-15T14:47:35.708Z,44.63
2023-07-15T14:50:57.359Z,43.52
2023-07-15T14:54:24.301Z,43.10
2023-07-15T14:57:45.921Z,43.39
2023-07-15T15:01:07.694Z,43.58
2023-07-15T15:04:29.314Z,43.97
2023-07-15T15:07:50.945Z,44.25
2023-07-15T15:11:12.809Z,44.58
2023-07-15T15:14:36.001Z,44.20
2023-07-15T15:18:00.218Z,44.28
2023-07-15T15:21:21.884Z,44.34
2023-07-15T15:24:43.742Z,44.46
2023-07-15T15:28:05.461Z,44.83
2023-07-15T15:31:27.258Z,44.90
2023-07-15T15:34:53.689Z,44.15
2023-07-15T15:38:22.926Z,43.88
2023-07-15T15:41:46.837Z,43.65
2023-07-15T15:45:11.506Z,43.07
2023-07-15T15:48:35.724Z,43.77
2023-07-15T15:51:57.366Z,44.31
2023-07-15T15:55:21.396Z,44.33
2023-07-15T15:58:45.476Z,43.77
2023-07-15T16:02:07.220Z,44.66
2023-07-15T16:05:31.631Z,44.87
2023-07-15T16:08:53.308Z,44.82
2023-07-15T16:12:14.886Z,44.41
2023-07-15T16:15:36.578Z,44.40
2023-07-15T16:18:58.203Z,44.59
2023-07-15T16:22:22.385Z,43.41
2023-07-15T16:25:46.469Z,44.17
2023-07-15T16:29:11.256Z,43.34
2023-07-15T16:32:35.360Z,43.69
2023-07-15T16:35:57.791Z,44.62
2023-07-15T16:39:19.369Z,44.30
2023-07-15T16:42:41.030Z,44.47
2023-07-15T16:46:05.206Z,44.49
2023-07-15T16:49:31.985Z,45.36
2023-07-15T16:52:53.651Z,45.04
2023-07-15T16:56:17.383Z,45.21
2023-07-15T16:59:38.994Z,45.14
2023-07-15T17:03:03.164Z,44.19
2023-07-15T17:06:24.838Z,44.55
2023-07-15T17:09:46.499Z,44.94
2023-07-15T17:13:09.595Z,44.99
2023-07-15T17:16:33.588Z,45.72
2023-07-15T17:19:55.248Z,45.36
2023-07-15T17:23:19.370Z,44.96
2023-07-15T17:26:43.890Z,45.03
2023-07-15T17:30:06.304Z,45.65
2023-07-15T17:33:27.904Z,46.00
2023-07-15T17:36:49.585Z,46.62
2023-07-15T17:40:14.645Z,47.05
2023-07-15T17:43:36.253Z,47.44
2023-07-15T17:47:03.467Z,47.36
2023-07-15T17:50:30.505Z,47.42
2023-07-15T17:53:56.718Z,47.59
2023-07-15T17:57:18.944Z,47.67
2023-07-15T18:00:42.300Z,47.65
2023-07-15T18:04:04.411Z,48.00
2023-07-15T18:07:26.100Z,48.19
2023-07-15T18:10:47.806Z,48.50
2023-07-15T18:14:11.640Z,48.59
2023-07-15T18:17:33.371Z,48.82
2023-07-15T18:20:57.450Z,48.97
2023-07-15T18:24:19.089Z,50.15
2023-07-15T18:27:43.211Z,50.86
2023-07-15T18:31:04.941Z,50.78
2023-07-15T18:34:26.523Z,51.17
2023-07-15T18:37:48.235Z,52.89
2023-07-15T18:41:12.152Z,53.87
2023-07-15T18:44:33.791Z,54.21
2023-07-15T18:47:55.489Z,55.23
2023-07-15T18:51:20.030Z,55.76
2023-07-15T18:54:41.644Z,56.17
2023-07-15T18:58:06.437Z,57.25
2023-07-15T19:01:30.645Z,57.48
2023-07-15T19:04:52.369Z,58.47
2023-07-15T19:08:16.190Z,58.88
2023-07-15T19:11:37.925Z,59.06
2023-07-15T19:15:01.814Z,59.54
2023-07-15T19:18:26.216Z,60.60
2023-07-15T19:21:47.850Z,60.62
2023-07-15T19:25:10.021Z,60.99
2023-07-15T19:28:31.941Z,61.27
2023-07-15T19:31:53.599Z,61.70
2023-07-15T19:35:17.470Z,61.91
2023-07-15T19:38:39.082Z,61.91
2023-07-15T19:42:03.089Z,62.37
2023-07-15T19:45:28.124Z,62.36
2023-07-15T19:48:52.608Z,62.63
2023-07-15T19:52:14.409Z,63.50
2023-07-15T19:55:36.046Z,62.64
2023-07-15T19:58:57.716Z,61.92
2023-07-15T20:02:19.416Z,63.68
2023-07-15T20:05:43.475Z,60.60
2023-07-15T20:09:07.658Z,62.73
2023-07-15T20:12:33.256Z,63.29
2023-07-15T20:15:57.552Z,63.60
2023-07-15T20:19:21.597Z,64.12
2023-07-15T20:22:43.306Z,64.45
2023-07-15T20:26:05.232Z,64.18
2023-07-15T20:29:26.901Z,64.28
2023-07-15T20:32:50.767Z,64.09
2023-07-15T20:36:12.520Z,65.17
2023-07-15T20:39:36.591Z,64.76
2023-07-15T20:42:58.215Z,64.28
2023-07-15T20:46:24.913Z,65.00
2023-07-15T20:49:46.597Z,64.78
2023-07-15T20:53:10.597Z,64.75
2023-07-15T20:56:32.250Z,65.10
2023-07-15T20:59:56.568Z,65.40
2023-07-15T21:03:21.093Z,65.35
2023-07-15T21:06:43.167Z,66.13
2023-07-15T21:10:05.335Z,66.08
2023-07-15T21:13:29.230Z,66.03
2023-07-15T21:16:51.167Z,66.76
2023-07-15T21:20:14.728Z,66.51
2023-07-15T21:23:38.496Z,66.79
2023-07-15T21:27:01.378Z,66.99
2023-07-15T21:30:25.936Z,66.94
2023-07-15T21:33:50.151Z,67.01
2023-07-15T21:37:11.753Z,67.58
2023-07-15T21:40:33.883Z,67.66
2023-07-15T21:43:55.975Z,67.25
2023-07-15T21:47:17.584Z,67.66
2023-07-15T21:50:42.189Z,67.80
2023-07-15T21:54:04.084Z,67.55
2023-07-15T21:57:25.711Z,67.92
2023-07-15T22:00:49.911Z,67.98
2023-07-15T22:04:16.780Z,67.82
2023-07-15T22:07:39.266Z,68.13
2023-07-15T22:11:08.441Z,67.74
2023-07-15T22:14:30.114Z,67.34
2023-07-15T22:17:56.515Z,67.99
2023-07-15T22:21:18.199Z,67.90
2023-07-15T22:24:39.790Z,67.98
2023-07-15T22:28:04.041Z,68.94
2023-07-15T22:31:28.038Z,68.93
2023-07-15T22:34:52.038Z,69.03
2023-07-15T22:38:13.632Z,68.90
2023-07-15T22:41:37.702Z,68.94
2023-07-15T22:44:59.356Z,69.20
2023-07-15T22:48:26.410Z,69.11
2023-07-15T22:51:47.995Z,68.62
2023-07-15T22:55:12.255Z,68.92
2023-07-15T22:58:36.391Z,69.23
2023-07-15T23:02:02.413Z,69.20
2023-07-15T23:05:24.271Z,69.52
2023-07-15T23:08:45.957Z,69.65
2023-07-15T23:12:12.449Z,69.90
2023-07-15T23:15:34.093Z,69.90
2023-07-15T23:18:55.751Z,69.53
2023-07-15T23:22:19.911Z,69.20
2023-07-15T23:25:41.532Z,69.38
2023-07-15T23:29:03.585Z,69.71
2023-07-15T23:32:27.965Z,69.64
2023-07-15T23:35:57.680Z,70.45
2023-07-15T23:39:19.316Z,70.36
2023-07-15T23:42:40.946Z,71.78
2023-07-15T23:46:05.125Z,72.03
2023-07-15T23:49:26.797Z,72.40
2023-07-15T23:52:48.646Z,72.30
2023-07-15T23:56:15.414Z,71.80
2023-07-15T23:59:37.270Z,72.08
